This is the latest recevied weather packets stored in our database for station/object KE6JJJ-1. If no packets are shown the sender has not sent any weather packets the latest 1 day(s).
| Time | Temp. | Humidity | Pressure | Rain* | Wind** | Luminosity | Snow |
|---|---|---|---|---|---|---|---|
| 1778009711 | 17.78° C | 71% | 1015.9 hPa | 0 mm | 2.24 m/s, 248° | 608 W/m² | - |
| 1778007903 | 17.22° C | 71% | 1015.9 hPa | 0 mm | 4.92 m/s, 270° | 646 W/m² | - |
| 1778006103 | 16.67° C | 73% | 1015.9 hPa | 0 mm | 3.13 m/s, 292° | 638 W/m² | - |
| 1778004303 | 16.11° C | 77% | 1015.8 hPa | 0 mm | 1.79 m/s, 225° | 534 W/m² | - |
| 1778002503 | 15° C | 81% | 1015.6 hPa | 0 mm | 2.68 m/s, 292° | 318 W/m² | - |
| 1778000704 | 14.44° C | 84% | 1015.4 hPa | 0 mm | 1.79 m/s, 292° | 200 W/m² | - |
| 1777998903 | 14.44° C | 85% | 1015.5 hPa | 0 mm | 2.24 m/s, 292° | 155 W/m² | - |
| 1777997103 | 13.89° C | 86% | 1015.3 hPa | 0 mm | 2.24 m/s, 270° | 127 W/m² | - |
| 1777995303 | 13.33° C | 87% | 1015.1 hPa | 0 mm | 2.24 m/s, 270° | 81 W/m² | - |
| 1777993503 | 13.33° C | 87% | 1014.9 hPa | 0 mm | 1.34 m/s, 248° | 32 W/m² | - |
| 1777991703 | 13.33° C | 87% | 1014.8 hPa | 0 mm | 1.34 m/s, 270° | 25 W/m² | - |
| 1777989903 | 13.33° C | 86% | 1014.6 hPa | 0 mm | 0.89 m/s, 248° | 11 W/m² | - |
| 1777988103 | 12.78° C | 86% | 1014.3 hPa | 0 mm | 1.79 m/s, 270° | 5 W/m² | - |
| 1777986303 | 12.78° C | 86% | 1014.2 hPa | 0 mm | 0.89 m/s, 292° | 0 W/m² | - |
| 1777984503 | 12.22° C | 86% | 1014.3 hPa | 0 mm | 0.89 m/s, 270° | 0 W/m² | - |
| 1777982710 | 12.22° C | 86% | 1014.1 hPa | 0 mm | 1.34 m/s, 248° | 0 W/m² | - |
| 1777980903 | 12.22° C | 86% | 1014.4 hPa | 0 mm | 1.79 m/s, 248° | 0 W/m² | - |
| 1777979103 | 11.67° C | 86% | 1014.3 hPa | 0 mm | 0.45 m/s, 292° | 0 W/m² | - |
| 1777977303 | 12.22° C | 87% | 1014.6 hPa | 0.25 mm | 1.79 m/s, 270° | 0 W/m² | - |
| 1777975510 | 12.22° C | 88% | 1014.5 hPa | 0.25 mm | 0.89 m/s, 270° | 0 W/m² | - |
| 1777973703 | 12.22° C | 88% | 1014.8 hPa | 0.25 mm | 2.24 m/s, 270° | 0 W/m² | - |
| 1777971903 | 12.22° C | 88% | 1015 hPa | 0.76 mm | 0.89 m/s, 270° | 0 W/m² | - |
| 1777970103 | 12.22° C | 88% | 1015.1 hPa | 1.27 mm | 0.45 m/s, 315° | 0 W/m² | - |
| 1777968303 | 12.22° C | 87% | 1015.2 hPa | 1.02 mm | 1.79 m/s, 248° | 0 W/m² | - |
* Rain latest hour (hover to see other rain measurements)
** Current wind speed in m/s (hover to see current wind gust speed)